CheckWX is a tool to help pilots better visualize weather data.  It is not intended as a substitute for an official pre-flight weather briefing.

06:08:16 UTC

KBVU METAR
Boulder City Municipal Airport
Boulder City, Nevada, USA
Current

13 mins ago

KBVU 230555Z AUTO 03011G18KT 10SM FEW050 21/02 A2997 RMK AO2
Observed
Apr-23 @ 05:55 UTC
Wind
  • 030° at 11 KTS
  • Gusting to 18 KTS
Visibility
10 SM
Flight Rules
VFR
Cloud Levels
  • Few at 5,000' AGL
Temperature
21°C / 70°F
Dewpoint
C / 36°F
Humidity
29%
Altimeter
29.97" Hg
Pressure
1014.92 hPa
Previous

33 mins ago

KBVU 230535Z AUTO 03013G18KT 10SM FEW050 22/01 A2996 RMK AO2
Observed
Apr-23 @ 05:35 UTC
Wind
  • 030° at 13 KTS
  • Gusting to 18 KTS
Visibility
10 SM
Flight Rules
VFR
Cloud Levels
  • Few at 5,000' AGL
Temperature
22°C / 72°F
Dewpoint
C / 34°F
Humidity
25%
Altimeter
29.96" Hg
Pressure
1014.52 hPa
Previous

53 mins ago

KBVU 230515Z AUTO 35010KT 10SM CLR 21/00 A2995 RMK AO2
Observed
Apr-23 @ 05:15 UTC
Wind
  • 350° at 10 KTS
Visibility
10 SM
Flight Rules
VFR
Cloud Levels
  • Clear skies
Temperature
21°C / 70°F
Dewpoint
C / 32°F
Humidity
25%
Altimeter
29.95" Hg
Pressure
1014.22 hPa